createdAt,value
2023-04-03T00:01:39.241Z,1.45
2023-04-03T00:04:08.485Z,1.85
2023-04-03T00:06:36.293Z,1.65
2023-04-03T00:09:04.137Z,1.58
2023-04-03T00:11:31.228Z,1.40
2023-04-03T00:13:58.501Z,1.90
2023-04-03T00:16:25.797Z,2.00
2023-04-03T00:18:52.920Z,1.85
2023-04-03T00:21:20.265Z,1.55
2023-04-03T00:23:47.301Z,1.70
2023-04-03T00:26:15.049Z,1.63
2023-04-03T00:28:42.270Z,1.90
2023-04-03T00:31:09.478Z,1.70
2023-04-03T00:33:36.754Z,1.55
2023-04-03T00:36:17.000Z,2.17
2023-04-03T00:38:50.351Z,1.88
2023-04-03T00:41:23.658Z,1.70
2023-04-03T00:44:00.836Z,1.95
2023-04-03T00:46:51.576Z,2.00
2023-04-03T00:49:22.452Z,1.70
2023-04-03T00:51:49.941Z,1.95
2023-04-03T00:54:17.052Z,1.83
2023-04-03T00:58:04.651Z,2.22
2023-04-03T01:00:32.133Z,1.83
2023-04-03T01:02:59.933Z,1.70
2023-04-03T01:05:28.621Z,1.92
2023-04-03T01:07:56.499Z,1.77
2023-04-03T01:10:26.451Z,1.77
2023-04-03T01:12:53.847Z,1.50
2023-04-03T01:15:42.312Z,1.95
2023-04-03T01:18:11.487Z,1.75
2023-04-03T01:21:08.519Z,1.60
2023-04-03T01:24:22.065Z,1.90
2023-04-03T01:26:51.350Z,2.10
2023-04-03T01:29:32.379Z,2.15
2023-04-03T01:32:04.269Z,2.17
2023-04-03T01:34:32.142Z,1.85
2023-04-03T01:37:03.473Z,1.92
2023-04-03T01:39:31.475Z,2.20
2023-04-03T01:42:01.930Z,1.70
2023-04-03T01:44:39.418Z,2.33
2023-04-03T01:47:08.437Z,1.77
2023-04-03T01:49:38.413Z,1.85
2023-04-03T01:52:05.851Z,1.85
2023-04-03T01:54:33.228Z,1.55
2023-04-03T01:57:03.280Z,1.73
2023-04-03T01:59:30.958Z,1.70
2023-04-03T02:02:00.763Z,1.60
2023-04-03T02:04:28.026Z,1.60
2023-04-03T02:06:55.290Z,1.98
2023-04-03T02:09:23.383Z,1.90
2023-04-03T02:11:54.127Z,2.28
2023-04-03T02:14:37.357Z,1.80
2023-04-03T02:17:20.632Z,1.52
2023-04-03T02:20:04.665Z,2.45
2023-04-03T02:22:52.154Z,1.70
2023-04-03T02:25:22.377Z,2.83
2023-04-03T02:27:49.700Z,1.92
2023-04-03T02:30:19.687Z,2.00
2023-04-03T02:32:47.388Z,1.75
2023-04-03T02:35:25.497Z,1.25
2023-04-03T02:37:53.500Z,1.90
2023-04-03T02:40:20.865Z,1.50
2023-04-03T02:46:19.182Z,1.70
2023-04-03T02:48:46.449Z,1.92
2023-04-03T02:51:13.726Z,2.03
2023-04-03T02:53:41.243Z,2.17
2023-04-03T02:56:14.496Z,1.80
2023-04-03T02:58:41.638Z,1.98
2023-04-03T03:01:09.874Z,2.20
2023-04-03T03:03:37.655Z,2.22
2023-04-03T03:06:14.856Z,2.13
2023-04-03T03:08:42.834Z,1.92
2023-04-03T03:11:10.409Z,1.95
2023-04-03T03:13:56.414Z,1.90
2023-04-03T03:16:53.394Z,2.03
2023-04-03T03:19:26.939Z,2.47
2023-04-03T03:24:54.452Z,1.92
2023-04-03T03:27:21.846Z,1.98
2023-04-03T03:29:49.251Z,1.95
2023-04-03T03:32:16.709Z,1.88
2023-04-03T03:34:44.033Z,2.30
2023-04-03T03:37:11.384Z,1.92
2023-04-03T03:39:38.598Z,2.25
2023-04-03T03:42:05.855Z,1.73
2023-04-03T03:44:33.119Z,2.88
2023-04-03T03:47:01.023Z,2.47
2023-04-03T03:49:29.451Z,2.30
2023-04-03T03:51:56.603Z,2.05
2023-04-03T03:54:23.869Z,1.85
2023-04-03T03:56:51.964Z,2.10
2023-04-03T03:59:20.141Z,1.65
2023-04-03T04:01:47.438Z,2.10
2023-04-03T04:04:15.363Z,2.40
2023-04-03T04:07:04.696Z,2.20
2023-04-03T04:09:33.464Z,2.78
2023-04-03T04:12:00.898Z,2.92
2023-04-03T04:15:04.829Z,2.25
2023-04-03T04:24:58.440Z,3.00
2023-04-03T04:27:30.188Z,2.40
2023-04-03T04:30:18.410Z,2.80
2023-04-03T04:33:01.173Z,2.35
2023-04-03T04:35:40.870Z,2.00
2023-04-03T04:38:10.863Z,2.38
2023-04-03T04:44:24.063Z,2.20
2023-04-03T04:46:57.570Z,2.33
2023-04-03T04:50:44.510Z,2.17
2023-04-03T04:53:46.606Z,2.97
2023-04-03T04:56:16.865Z,2.60
2023-04-03T04:58:44.639Z,2.50
2023-04-03T05:01:12.712Z,2.90
2023-04-03T05:04:03.273Z,2.75
2023-04-03T05:06:34.901Z,3.85
2023-04-03T05:09:04.310Z,2.40
2023-04-03T05:11:33.400Z,2.15
2023-04-03T05:14:00.799Z,2.25
2023-04-03T05:16:30.145Z,2.97
2023-04-03T05:19:04.501Z,2.95
2023-04-03T05:21:39.244Z,3.03
2023-04-03T05:24:11.560Z,2.40
2023-04-03T05:26:41.902Z,2.30
2023-04-03T05:29:11.168Z,2.80
2023-04-03T05:31:39.193Z,2.22
2023-04-03T05:34:08.872Z,2.90
2023-04-03T05:36:38.262Z,1.45
2023-04-03T05:39:09.084Z,3.05
2023-04-03T05:41:39.768Z,2.50
2023-04-03T05:44:07.169Z,2.97
2023-04-03T05:46:34.435Z,2.22
2023-04-03T05:49:05.432Z,2.60
2023-04-03T05:51:38.152Z,3.00
2023-04-03T05:54:24.028Z,2.10
2023-04-03T05:56:54.344Z,2.67
2023-04-03T05:59:22.866Z,2.38
2023-04-03T06:01:53.263Z,1.88
2023-04-03T06:04:22.154Z,2.38
2023-04-03T06:06:56.575Z,2.65
2023-04-03T06:09:30.118Z,2.22
2023-04-03T06:11:59.948Z,2.30
2023-04-03T06:14:28.834Z,2.08
2023-04-03T06:16:56.745Z,2.50
2023-04-03T06:19:24.302Z,2.10
2023-04-03T06:41:28.112Z,1.85
2023-04-03T06:43:58.672Z,2.20
2023-04-03T06:46:27.968Z,2.58
2023-04-03T06:48:56.049Z,2.47
2023-04-03T06:51:27.092Z,2.00
2023-04-03T06:53:58.113Z,2.45
2023-04-03T06:56:27.382Z,2.20
2023-04-03T06:58:58.049Z,2.08
2023-04-03T07:01:28.976Z,1.98
2023-04-03T07:12:43.222Z,2.47
2023-04-03T07:16:10.029Z,2.80
2023-04-03T07:31:43.534Z,2.50
2023-04-03T07:34:17.594Z,2.20
2023-04-03T07:40:03.680Z,2.72
2023-04-03T07:54:50.335Z,1.90
2023-04-03T07:57:26.737Z,2.20
2023-04-03T07:59:54.347Z,2.28
2023-04-03T08:02:22.723Z,2.75
2023-04-03T08:04:51.243Z,2.40
2023-04-03T08:07:22.292Z,2.50
2023-04-03T08:09:50.215Z,2.38
2023-04-03T08:12:52.229Z,2.42
2023-04-03T08:15:20.386Z,2.60
2023-04-03T08:17:47.495Z,2.20
2023-04-03T08:20:32.441Z,2.10
2023-04-03T08:23:02.519Z,2.28
2023-04-03T08:25:46.421Z,2.20
2023-04-03T08:28:29.023Z,2.08
2023-04-03T08:31:19.436Z,2.15
2023-04-03T08:45:04.291Z,2.40
2023-04-03T08:48:08.319Z,2.38
2023-04-03T08:50:47.451Z,2.00
2023-04-03T08:53:26.088Z,2.42
2023-04-03T08:55:56.185Z,2.13
2023-04-03T08:58:56.132Z,1.63
2023-04-03T09:01:50.460Z,2.08
2023-04-03T09:04:21.272Z,2.20
2023-04-03T09:07:15.444Z,1.77
2023-04-03T09:09:45.611Z,2.00
2023-04-03T09:12:28.230Z,2.00
2023-04-03T09:19:37.506Z,1.90
2023-04-03T09:22:19.758Z,1.92
2023-04-03T09:24:57.591Z,2.50
2023-04-03T09:27:26.324Z,3.20
2023-04-03T09:29:58.772Z,2.25
2023-04-03T09:32:33.605Z,1.92
2023-04-03T09:35:32.894Z,2.00
2023-04-03T09:38:10.528Z,1.60
2023-04-03T09:40:41.100Z,1.38
2023-04-03T09:43:31.693Z,1.67
2023-04-03T09:47:17.869Z,1.30
2023-04-03T09:50:15.704Z,1.77
2023-04-03T09:56:56.884Z,1.50
2023-04-03T09:59:24.464Z,1.38
2023-04-03T10:02:22.721Z,1.67
2023-04-03T10:05:08.431Z,1.63
2023-04-03T10:07:40.181Z,1.00
2023-04-03T10:10:35.490Z,1.67
2023-04-03T10:13:59.870Z,1.73
2023-04-03T10:16:51.101Z,1.10
2023-04-03T10:19:49.952Z,1.40
2023-04-03T10:23:09.469Z,1.60
2023-04-03T10:25:58.780Z,1.10
2023-04-03T10:28:50.057Z,0.93
2023-04-03T10:31:37.405Z,1.40
2023-04-03T10:34:46.737Z,1.30
2023-04-03T10:37:27.727Z,1.35
2023-04-03T10:40:34.613Z,1.25
2023-04-03T10:43:29.742Z,2.30
2023-04-03T10:46:17.894Z,1.00
2023-04-03T10:49:22.892Z,1.35
2023-04-03T10:52:15.676Z,1.13
2023-04-03T10:54:59.559Z,1.17
2023-04-03T10:57:27.932Z,1.15
2023-04-03T11:00:05.124Z,1.88
2023-04-03T11:02:46.728Z,1.40
2023-04-03T11:05:51.558Z,1.75
2023-04-03T11:08:34.519Z,1.25
2023-04-03T11:11:09.644Z,0.68
2023-04-03T11:14:06.025Z,0.80
2023-04-03T11:16:53.655Z,0.93
2023-04-03T11:19:58.302Z,1.10
2023-04-03T11:22:37.022Z,1.08
2023-04-03T11:25:12.536Z,1.50
2023-04-03T11:28:05.314Z,1.50
2023-04-03T11:31:27.364Z,0.75
2023-04-03T11:34:25.453Z,0.70
2023-04-03T11:37:02.582Z,1.00
2023-04-03T11:39:34.794Z,1.23
2023-04-03T11:42:33.397Z,1.17
2023-04-03T11:45:28.767Z,1.20
2023-04-03T11:48:21.007Z,0.93
2023-04-03T11:50:51.793Z,1.50
2023-04-03T11:53:36.552Z,1.00
2023-04-03T11:56:28.537Z,1.25
2023-04-03T11:59:14.819Z,0.70
2023-04-03T12:01:57.452Z,1.45
2023-04-03T12:04:28.937Z,1.20
2023-04-03T12:07:13.772Z,0.93
2023-04-03T12:09:44.715Z,1.15
2023-04-03T12:12:36.821Z,1.33
2023-04-03T12:15:45.166Z,1.20
2023-04-03T12:19:00.469Z,0.63
2023-04-03T12:21:37.668Z,1.00
2023-04-03T12:24:09.607Z,1.30
2023-04-03T12:27:02.756Z,1.25
2023-04-03T12:29:36.402Z,1.42
2023-04-03T12:32:43.501Z,1.40
2023-04-03T12:35:35.730Z,1.50
2023-04-03T12:38:31.122Z,1.02
2023-04-03T12:41:19.858Z,1.25
2023-04-03T12:44:48.464Z,1.50
2023-04-03T12:47:39.017Z,1.42
2023-04-03T12:50:26.069Z,0.60
2023-04-03T12:53:01.411Z,1.35
2023-04-03T12:55:29.390Z,1.23
2023-04-03T12:58:32.745Z,1.13
2023-04-03T13:01:12.309Z,1.08
2023-04-03T13:03:48.261Z,1.50
2023-04-03T13:06:32.108Z,1.98
2023-04-03T13:09:02.171Z,1.40
2023-04-03T13:11:39.645Z,1.25
2023-04-03T13:14:22.201Z,1.38
2023-04-03T13:17:04.323Z,1.23
2023-04-03T13:19:44.151Z,1.40
2023-04-03T13:22:50.830Z,1.20
2023-04-03T13:25:23.438Z,1.20
2023-04-03T13:30:33.658Z,1.45
2023-04-03T13:33:19.812Z,1.40
2023-04-03T13:35:47.389Z,1.10
2023-04-03T13:38:21.325Z,1.48
2023-04-03T13:41:04.051Z,1.30
2023-04-03T13:43:36.292Z,1.50
2023-04-03T13:46:27.551Z,0.93
2023-04-03T13:49:17.826Z,1.73
2023-04-03T13:51:54.207Z,1.23
2023-04-03T14:04:20.785Z,1.13
2023-04-03T14:06:51.280Z,1.60
2023-04-03T14:12:41.374Z,1.85
2023-04-03T14:15:24.769Z,1.25
2023-04-03T14:17:53.771Z,0.80
2023-04-03T14:20:25.721Z,1.50
2023-04-03T14:22:55.641Z,1.10
2023-04-03T14:25:27.617Z,0.65
2023-04-03T14:29:05.668Z,0.90
2023-04-03T14:32:41.478Z,1.38
2023-04-03T14:35:18.072Z,1.58
2023-04-03T14:37:56.029Z,0.82
2023-04-03T14:40:28.169Z,1.23
2023-04-03T14:42:56.556Z,1.48
2023-04-03T14:45:25.910Z,1.00
2023-04-03T14:47:59.412Z,1.30
2023-04-03T14:50:32.200Z,1.25
2023-04-03T14:53:02.290Z,1.30
2023-04-03T14:55:30.505Z,1.20
2023-04-03T14:57:57.700Z,1.55
2023-04-03T15:00:25.359Z,1.23
2023-04-03T15:02:52.858Z,1.42
2023-04-03T15:05:23.083Z,1.15
2023-04-03T15:08:01.595Z,1.45
2023-04-03T15:10:32.208Z,1.35
2023-04-03T15:12:59.548Z,1.17
2023-04-03T15:15:33.165Z,1.98
2023-04-03T15:18:06.687Z,1.75
2023-04-03T15:20:34.681Z,1.65
2023-04-03T15:23:12.029Z,1.40
2023-04-03T15:25:40.572Z,1.27
2023-04-03T15:28:39.652Z,1.20
2023-04-03T15:31:24.859Z,1.40
2023-04-03T15:33:52.719Z,1.45
2023-04-03T15:36:33.240Z,0.77
2023-04-03T15:39:02.190Z,0.80
2023-04-03T15:41:29.554Z,1.38
2023-04-03T15:43:56.805Z,1.60
2023-04-03T15:46:27.131Z,1.20
2023-04-03T15:48:55.528Z,1.63
2023-04-03T15:51:25.280Z,1.40
2023-04-03T15:53:53.454Z,1.25
2023-04-03T15:56:20.608Z,1.00
2023-04-03T15:58:47.728Z,1.58
2023-04-03T16:01:15.045Z,1.23
2023-04-03T16:03:46.339Z,1.40
2023-04-03T16:06:16.517Z,1.60
2023-04-03T16:08:43.824Z,1.17
2023-04-03T16:11:11.118Z,0.98
2023-04-03T16:13:38.728Z,1.40
2023-04-03T16:16:06.635Z,1.25
2023-04-03T16:18:36.870Z,1.05
2023-04-03T16:21:07.707Z,1.33
2023-04-03T16:23:35.974Z,0.73
2023-04-03T16:29:59.233Z,0.93
2023-04-03T16:32:31.681Z,1.60
2023-04-03T16:37:33.107Z,1.45
2023-04-03T16:40:00.415Z,2.22
2023-04-03T16:42:27.982Z,1.23
2023-04-03T16:44:55.005Z,1.30
2023-04-03T16:47:22.109Z,1.10
2023-04-03T16:49:49.238Z,1.05
2023-04-03T16:52:16.622Z,1.40
2023-04-03T16:54:44.938Z,1.20
2023-04-03T16:57:12.139Z,1.35
2023-04-03T16:59:42.518Z,1.20
2023-04-03T17:02:10.377Z,1.00
2023-04-03T17:04:37.406Z,1.10
2023-04-03T17:07:07.077Z,1.48
2023-04-03T17:09:35.011Z,1.60
2023-04-03T17:12:06.776Z,1.58
2023-04-03T17:14:34.176Z,1.33
2023-04-03T17:17:03.847Z,1.15
2023-04-03T17:19:31.748Z,1.60
2023-04-03T17:21:59.498Z,1.60
2023-04-03T17:24:27.973Z,1.40
2023-04-03T17:26:55.904Z,1.35
2023-04-03T17:29:22.999Z,1.10
2023-04-03T17:31:50.177Z,1.40
2023-04-03T17:34:18.007Z,1.10
2023-04-03T17:36:45.068Z,1.85
2023-04-03T17:39:12.549Z,1.15
2023-04-03T17:41:45.861Z,1.73
2023-04-03T17:44:13.810Z,1.60
2023-04-03T17:46:41.275Z,1.90
2023-04-03T17:49:14.090Z,1.35
2023-04-03T17:51:44.661Z,1.58
2023-04-03T17:54:14.989Z,1.60
2023-04-03T17:56:47.700Z,1.67
2023-04-03T17:59:16.851Z,1.70
2023-04-03T18:01:49.179Z,2.22
2023-04-03T18:04:16.737Z,2.08
2023-04-03T18:06:49.635Z,2.70
2023-04-03T18:09:31.162Z,2.70
2023-04-03T18:12:01.865Z,3.42
2023-04-03T18:14:29.231Z,2.90
2023-04-03T18:16:59.554Z,2.53
2023-04-03T18:19:29.020Z,2.60
2023-04-03T18:22:03.141Z,2.35
2023-04-03T18:24:34.352Z,2.03
2023-04-03T18:27:15.504Z,1.90
2023-04-03T18:29:49.120Z,2.10
2023-04-03T18:32:20.692Z,2.53
2023-04-03T18:34:48.101Z,2.13
2023-04-03T18:37:17.031Z,2.70
2023-04-03T18:39:44.233Z,2.38
2023-04-03T18:42:19.665Z,2.70
2023-04-03T18:44:53.164Z,2.72
2023-04-03T18:52:11.506Z,2.88
2023-04-03T18:57:56.546Z,3.00
2023-04-03T19:00:23.684Z,3.35
2023-04-03T19:02:50.817Z,3.90
2023-04-03T19:05:19.975Z,2.88
2023-04-03T19:07:58.785Z,3.15
2023-04-03T19:10:27.360Z,2.95
2023-04-03T19:12:55.015Z,3.88
2023-04-03T19:15:27.361Z,3.50
2023-04-03T19:17:54.572Z,2.50
2023-04-03T19:20:21.989Z,3.28
2023-04-03T19:22:49.110Z,2.90
2023-04-03T19:25:16.222Z,2.63
2023-04-03T19:27:43.561Z,2.67
2023-04-03T19:30:13.088Z,2.30
2023-04-03T19:32:40.987Z,2.63
2023-04-03T19:35:10.404Z,2.30
2023-04-03T19:37:40.133Z,2.13
2023-04-03T19:40:08.622Z,2.28
2023-04-03T19:42:40.225Z,2.30
2023-04-03T19:45:10.660Z,1.80
2023-04-03T19:47:38.658Z,3.05
2023-04-03T19:50:07.275Z,2.63
2023-04-03T19:52:34.366Z,3.25
2023-04-03T19:55:53.682Z,2.30
2023-04-03T19:58:54.194Z,3.08
2023-04-03T20:01:24.458Z,2.97
2023-04-03T20:03:52.512Z,3.70
2023-04-03T20:06:19.834Z,3.13
2023-04-03T20:08:47.159Z,2.50
2023-04-03T20:11:17.751Z,3.03
2023-04-03T20:13:45.154Z,2.78
2023-04-03T20:16:12.641Z,2.50
2023-04-03T20:18:40.387Z,2.33
2023-04-03T20:21:08.758Z,2.40
2023-04-03T20:23:37.271Z,2.25
2023-04-03T20:26:11.845Z,1.88
2023-04-03T20:28:43.647Z,2.42
2023-04-03T20:31:13.716Z,2.05
2023-04-03T20:33:41.029Z,2.33
2023-04-03T20:36:08.396Z,2.30
2023-04-03T20:38:35.921Z,2.60
2023-04-03T20:41:03.220Z,2.58
2023-04-03T20:43:31.450Z,2.65
2023-04-03T20:46:03.389Z,2.30
2023-04-03T20:48:32.638Z,2.38
2023-04-03T20:51:08.882Z,2.75
2023-04-03T20:53:36.370Z,2.58
2023-04-03T20:56:04.145Z,2.97
2023-04-03T20:58:33.132Z,2.45
2023-04-03T21:01:22.856Z,2.72
2023-04-03T21:03:55.149Z,2.63
2023-04-03T21:10:28.778Z,3.10
2023-04-03T21:13:54.703Z,2.95
2023-04-03T21:16:22.378Z,2.97
2023-04-03T21:19:10.399Z,2.90
2023-04-03T21:21:37.751Z,3.30
2023-04-03T21:24:09.915Z,3.83
2023-04-03T21:29:08.290Z,3.17
2023-04-03T21:31:59.862Z,3.08
2023-04-03T21:34:31.703Z,2.90
2023-04-03T21:37:05.637Z,2.90
2023-04-03T21:39:33.560Z,3.13
2023-04-03T21:42:01.145Z,3.60
2023-04-03T21:44:29.797Z,2.78
2023-04-03T21:46:56.885Z,3.33
2023-04-03T21:49:28.595Z,3.47
2023-04-03T21:51:56.165Z,3.92
2023-04-03T21:54:25.353Z,3.40
2023-04-03T21:56:52.555Z,3.20
2023-04-03T21:59:20.139Z,3.13
2023-04-03T22:01:48.527Z,3.15
2023-04-03T22:04:16.742Z,3.42
2023-04-03T22:06:44.613Z,3.50
2023-04-03T22:09:12.221Z,3.00
2023-04-03T22:11:41.265Z,2.97
2023-04-03T22:14:08.364Z,2.85
2023-04-03T22:16:35.579Z,2.63
2023-04-03T22:19:02.871Z,2.90
2023-04-03T22:21:35.795Z,3.10
2023-04-03T22:24:03.546Z,3.35
2023-04-03T22:26:30.640Z,3.10
2023-04-03T22:28:58.214Z,3.28
2023-04-03T22:31:25.816Z,3.35
2023-04-03T22:33:53.163Z,2.80
2023-04-03T22:36:23.216Z,2.67
2023-04-03T22:38:51.121Z,3.22
2023-04-03T22:41:18.139Z,3.17
2023-04-03T22:43:46.455Z,2.75
2023-04-03T22:46:13.730Z,3.03
2023-04-03T22:48:43.373Z,3.40
2023-04-03T22:51:10.651Z,2.67
2023-04-03T22:55:06.264Z,2.90
2023-04-03T22:58:35.868Z,2.67
2023-04-03T23:01:11.670Z,2.45
2023-04-03T23:03:42.134Z,3.17
2023-04-03T23:11:21.676Z,3.00
2023-04-03T23:14:09.619Z,2.88
2023-04-03T23:16:44.282Z,2.92
2023-04-03T23:19:12.448Z,3.13
2023-04-03T23:21:39.540Z,2.85
2023-04-03T23:24:07.146Z,3.03
2023-04-03T23:26:34.546Z,2.85
2023-04-03T23:29:02.194Z,2.63
2023-04-03T23:31:29.435Z,2.72
2023-04-03T23:33:56.534Z,2.85
2023-04-03T23:36:23.700Z,2.40
2023-04-03T23:38:50.943Z,2.55
2023-04-03T23:44:33.563Z,2.35
2023-04-03T23:47:00.639Z,3.03
2023-04-03T23:53:56.002Z,3.00
2023-04-03T23:56:23.103Z,3.00
2023-04-03T23:58:50.864Z,2.67
